Nearby METAR Reports

 

KLXT - Lees Summit Muni, Missouri, USA
Distance from station: E 5mi, 9km
Updated: Thu, 05-Mar-2015 1:53pm CST
Clear
Clear
 Wind from calm
Wind: Calm
Temperature: 28°F , -2°C
Dew Point: 3°F , -16°C
Humidity: 34%
Barometer: 30.52 inHg , 1033.5 hPa
Clouds: Clear
Visibility: 10 miles , 16 km
2015/03/05 19:53 KLXT 051953Z AUTO 00000KT 10SM CLR M02/M16 A3052 RMK AO2 SLP350 T10171161 $
KMKC - Kansas City/Dntn, Missouri, USA
Distance from station: NW 12mi, 19km
Updated: Thu, 05-Mar-2015 1:54pm CST
Clear
Clear
 Wind from varies
Wind: varies 5 mph , 7 km/h
Temperature: 30°F , -1°C
Wind Chill: 25°F , -4°C
Dew Point: 1°F , -17°C
Humidity: 29%
Barometer: 30.53 inHg , 1033.9 hPa
Clouds: Clear
Visibility: 10 miles , 16 km
2015/03/05 19:54 KMKC 051954Z VRB04KT 10SM CLR M01/M17 A3053 RMK AO2 SLP348 T10061167
 
KIXD - Olathe/Industria, Kansas, USA
Distance from station: WSW 25mi, 41km
Updated: Thu, 05-Mar-2015 1:53pm CST
Clear
Clear
 
Temperature: 28°F , -2°C
Dew Point: 5°F , -15°C
Humidity: 37%
Barometer: 30.52 inHg , 1033.5 hPa
Clouds: Clear
Visibility: 10 miles , 16 km
2015/03/05 19:53 KIXD 051953Z 10SM CLR M02/M15 A3052 RMK AO2 SNE16 SLP348 P0000 T10221150
KMCI - Kansas City/Intl, Missouri, USA
Distance from station: NW 26mi, 42km
Updated: Thu, 05-Mar-2015 1:53pm CST
Clear
Clear
 Wind from NW
Wind: NW 7 mph , 11 km/h
Temperature: 28°F , -2°C
Wind Chill: 21°F , -6°C
Dew Point: 3°F , -16°C
Humidity: 34%
Barometer: 30.51 inHg , 1033.2 hPa
Clouds: Clear
Visibility: 10 miles , 16 km
2015/03/05 19:53 KMCI 051953Z 31006KT 10SM CLR M02/M16 A3051 RMK AO2 SLP346 T10171161
 
KRCM - Warrensburg Skyh, Missouri, USA
Distance from station: ESE 38mi, 62km
Updated: Thu, 05-Mar-2015 1:55pm CST
Clear
Clear
 Wind from NW
Wind: NW 5 mph , 7 km/h
Temperature: 30°F , -1°C
Wind Chill: 25°F , -4°C
Dew Point: 5°F , -15°C
Humidity: 34%
Barometer: 30.54 inHg , 1034.2 hPa
Clouds: Clear
Visibility: 10 miles , 16 km
2015/03/05 19:55 KRCM 051955Z AUTO 32004KT 10SM CLR M01/M15 A3054 RMK AO2
KLWC - Lawrence, Kansas, USA
Distance from station: W 40mi, 65km
Updated: Thu, 05-Mar-2015 1:52pm CST
Clear
Clear
 Wind from SE
Wind: SE 3 mph , 6 km/h
Temperature: 30°F , -1°C
Dew Point: 3°F , -16°C
Humidity: 31%
Barometer: 30.52 inHg , 1033.5 hPa
Clouds: Clear
Visibility: 10 miles , 16 km
2015/03/05 19:52 KLWC 051952Z AUTO 13003KT 10SM CLR M01/M16 A3052 RMK AO2 SLP348 T10111161
 
KSZL - Whiteman Afb, Missouri, USA
Distance from station: ESE 53mi, 86km
Updated: Thu, 05-Mar-2015 1:58pm CST
Clear
Clear
 Wind from varies
Wind: varies 2 mph , 4 km/h
Temperature: 27°F , -3°C
Dew Point: 5°F , -15°C
Humidity: 39%
Barometer: 30.52 inHg , 1033.5 hPa
Clouds: Clear
Visibility: 10 miles , 16 km
2015/03/05 19:58 KSZL 051958Z AUTO VRB02KT 10SM CLR M03/M15 A3052 RMK AO2 SLP351 T10271149 $
KSTJ - St. Joseph, Missouri, USA
Distance from station: NNW 59mi, 95km
Updated: Thu, 05-Mar-2015 1:53pm CST
Clear
Clear
 Wind from calm
Wind: Calm
Temperature: 27°F , -3°C
Dew Point: 1°F , -17°C
Humidity: 33%
Barometer: 30.54 inHg , 1034.2 hPa
Clouds: Clear
Visibility: 10 miles , 16 km
2015/03/05 19:53 KSTJ 051953Z 00000KT 10SM CLR M03/M17 A3054 RMK AO2 SLP354 T10331172
 
KGLY - Clinton, Missouri, USA
Distance from station: SE 61mi, 98km
Updated: Thu, 05-Mar-2015 2:15pm CST
Clear
Clear
 Wind from NW
Wind: NW 6 mph , 9 km/h
Temperature: 30°F , -1°C
Wind Chill: 24°F , -4°C
Dew Point: 12°F , -11°C
Humidity: 47%
Barometer: 30.55 inHg , 1034.5 hPa
Clouds: Clear
Visibility: 10 miles , 16 km
2015/03/05 20:15 KGLY 052015Z AUTO 31005KT 10SM CLR M01/M11 A3055 RMK AO2
KFOE - Topeka/Forbes, Kansas, USA
Distance from station: W 64mi, 103km
Updated: Thu, 05-Mar-2015 1:53pm CST
Clear
Clear
 Wind from calm
Wind: Calm
Temperature: 32°F , 0°C
Dew Point: 3°F , -16°C
Humidity: 29%
Barometer: 30.49 inHg , 1032.5 hPa
Clouds: Clear
Visibility: 10 miles , 16 km
2015/03/05 19:53 KFOE 051953Z 00000KT 10SM CLR 00/M16 A3049 RMK AO2 SLP338 T00001156
 
KDMO - Sedalia, Missouri, USA
Distance from station: ESE 72mi, 116km
Updated: Thu, 05-Mar-2015 1:53pm CST
Clear
Clear
 Wind from NNW
Wind: NNW 10 mph , 17 km/h
Temperature: 27°F , -3°C
Wind Chill: 18°F , -8°C
Dew Point: 9°F , -13°C
Humidity: 46%
Barometer: 30.54 inHg , 1034.2 hPa
Clouds: Clear
Visibility: 10 miles , 16 km
2015/03/05 19:53 KDMO 051953Z AUTO 34009KT 10SM CLR M03/M13 A3054 RMK AO2 SLP355 T10331128
KCDJ - Chillicothe, Missouri, USA
Distance from station: NE 74mi, 120km
Updated: Thu, 05-Mar-2015 1:52pm CST

 Wind from varies
Wind: varies 5 mph , 7 km/h
Temperature: 27°F , -3°C
Wind Chill: 21°F , -6°C
Dew Point: 7°F , -14°C
Humidity: 43%
Barometer: 30.54 inHg , 1034.2 hPa
2015/03/05 19:52 KCDJ 051952Z AUTO VRB04KT M03/M14 A3054 RMK AO1 SLP364 T10281144
 
KFNB - Falls City/Brenn, Nebraska, USA
Distance from station: NW 96mi, 154km
Updated: Thu, 05-Mar-2015 1:53pm CST
Clear
Clear
 Wind from SE
Wind: SE 6 mph , 9 km/h
Temperature: 28°F , -2°C
Wind Chill: 21°F , -6°C
Dew Point: -0°F , -18°C
Humidity: 29%
Barometer: 30.49 inHg , 1032.5 hPa
Clouds: Clear
Visibility: 10 miles , 16 km
2015/03/05 19:53 KFNB 051953Z AUTO 14005KT 10SM CLR M02/M18 A3049 RMK AO2 SLP342 T10221178
KVER - Boonville, Missouri, USA
Distance from station: E 96mi, 154km
Updated: Thu, 05-Mar-2015 1:55pm CST
Clear
Clear
 Wind from N
Wind: N 5 mph , 7 km/h
Temperature: 27°F , -3°C
Wind Chill: 21°F , -6°C
Dew Point: 7°F , -14°C
Humidity: 43%
Barometer: 30.54 inHg , 1034.2 hPa
Clouds: Clear
Visibility: 10 miles , 16 km
2015/03/05 19:55 KVER 051955Z AUTO 36004KT 10SM CLR M03/M14 A3054 RMK AO2 T10311139